createdAt,value
2023-05-15T00:01:47.149Z,100939.41
2023-05-15T00:04:15.253Z,100941.50
2023-05-15T00:06:45.744Z,100938.78
2023-05-15T00:09:13.897Z,100945.50
2023-05-15T00:11:44.660Z,100938.63
2023-05-15T00:14:13.149Z,100936.06
2023-05-15T00:16:41.859Z,100935.28
2023-05-15T00:19:10.129Z,100934.44
2023-05-15T00:21:38.512Z,100930.16
2023-05-15T00:24:06.938Z,100930.50
2023-05-15T00:26:35.408Z,100926.22
2023-05-15T00:29:03.970Z,100930.00
2023-05-15T00:31:33.925Z,100924.84
2023-05-15T00:34:01.982Z,100925.97
2023-05-15T00:36:30.548Z,100927.22
2023-05-15T00:39:00.747Z,100929.53
2023-05-15T00:41:34.958Z,100922.06
2023-05-15T00:44:03.819Z,100923.50
2023-05-15T00:46:33.608Z,100931.38
2023-05-15T00:49:04.016Z,100931.97
2023-05-15T00:51:32.760Z,100930.13
2023-05-15T00:54:01.098Z,100930.72
2023-05-15T00:56:31.028Z,100929.13
2023-05-15T00:59:00.379Z,100934.50
2023-05-15T01:01:33.722Z,100929.03
2023-05-15T01:04:07.091Z,100924.09
2023-05-15T01:06:35.963Z,100922.50
2023-05-15T01:09:12.253Z,100928.53
2023-05-15T01:11:42.860Z,100922.88
2023-05-15T01:14:11.277Z,100923.84
2023-05-15T01:16:39.680Z,100925.19
2023-05-15T01:19:08.126Z,100926.53
2023-05-15T01:21:43.310Z,100923.47
2023-05-15T01:24:20.411Z,100924.44
2023-05-15T01:27:10.218Z,100925.03
2023-05-15T01:29:50.922Z,100913.88
2023-05-15T01:32:25.859Z,100914.09
2023-05-15T01:35:17.366Z,100912.41
2023-05-15T01:37:50.231Z,100915.31
2023-05-15T01:40:20.202Z,100910.91
2023-05-15T01:42:54.708Z,100911.91
2023-05-15T01:45:25.381Z,100916.53
2023-05-15T01:47:55.028Z,100915.53
2023-05-15T01:50:23.588Z,100915.81
2023-05-15T01:52:55.071Z,100917.66
2023-05-15T01:55:24.550Z,100911.50
2023-05-15T01:57:53.057Z,100914.19
2023-05-15T02:00:22.903Z,100909.56
2023-05-15T02:02:51.386Z,100909.44
2023-05-15T02:05:19.848Z,100906.16
2023-05-15T02:07:48.569Z,100908.25
2023-05-15T02:10:18.623Z,100908.38
2023-05-15T02:12:47.259Z,100908.41
2023-05-15T02:15:17.668Z,100918.84
2023-05-15T02:17:47.097Z,100908.19
2023-05-15T02:20:15.589Z,100907.97
2023-05-15T02:22:44.385Z,100916.34
2023-05-15T02:25:12.660Z,100907.66
2023-05-15T02:27:58.374Z,100901.97
2023-05-15T02:30:39.286Z,100906.31
2023-05-15T02:33:25.943Z,100904.88
2023-05-15T02:36:07.897Z,100902.81
2023-05-15T02:38:47.785Z,100904.91
2023-05-15T02:41:17.118Z,100903.41
2023-05-15T02:43:46.466Z,100895.53
2023-05-15T02:46:15.841Z,100897.09
2023-05-15T02:48:44.517Z,100892.94
2023-05-15T02:51:12.829Z,100886.72
2023-05-15T02:53:42.324Z,100892.06
2023-05-15T02:56:10.635Z,100895.13
2023-05-15T02:58:39.774Z,100903.81
2023-05-15T03:01:07.962Z,100901.94
2023-05-15T03:03:37.018Z,100912.09
2023-05-15T03:06:05.171Z,100915.38
2023-05-15T03:08:33.404Z,100913.66
2023-05-15T03:11:01.592Z,100915.44
2023-05-15T03:13:29.667Z,100914.47
2023-05-15T03:15:57.676Z,100922.13
2023-05-15T03:18:26.001Z,100918.00
2023-05-15T03:20:54.201Z,100918.22
2023-05-15T03:23:22.356Z,100928.28
2023-05-15T03:25:51.219Z,100915.63
2023-05-15T03:28:19.541Z,100921.63
2023-05-15T03:30:47.661Z,100922.03
2023-05-15T03:33:16.445Z,100916.34
2023-05-15T03:35:45.098Z,100915.06
2023-05-15T03:38:13.293Z,100923.63
2023-05-15T03:40:41.717Z,100928.94
2023-05-15T03:43:11.669Z,100932.28
2023-05-15T03:45:40.207Z,100933.59
2023-05-15T03:48:08.588Z,100939.00
2023-05-15T03:50:37.276Z,100931.44
2023-05-15T03:53:05.501Z,100938.22
2023-05-15T03:55:33.713Z,100943.63
2023-05-15T03:58:02.293Z,100940.03
2023-05-15T04:00:30.315Z,100931.16
2023-05-15T04:02:58.788Z,100931.88
2023-05-15T04:05:26.926Z,100938.34
2023-05-15T04:07:55.334Z,100933.47
2023-05-15T04:10:23.428Z,100935.22
2023-05-15T04:12:52.338Z,100941.34
2023-05-15T04:15:24.966Z,100940.53
2023-05-15T04:17:57.349Z,100949.81
2023-05-15T04:20:27.098Z,100938.59
2023-05-15T04:22:55.192Z,100936.09
2023-05-15T04:25:24.808Z,100939.34
2023-05-15T04:27:53.682Z,100933.72
2023-05-15T04:30:22.165Z,100929.59
2023-05-15T04:32:52.185Z,100936.34
2023-05-15T04:35:21.417Z,100941.63
2023-05-15T04:37:49.871Z,100941.94
2023-05-15T04:40:18.374Z,100948.53
2023-05-15T04:42:46.656Z,100945.47
2023-05-15T04:45:15.234Z,100945.03
2023-05-15T04:47:43.428Z,100947.91
2023-05-15T04:50:11.996Z,100943.97
2023-05-15T04:52:40.495Z,100946.09
2023-05-15T04:55:09.876Z,100940.81
2023-05-15T04:57:38.234Z,100937.50
2023-05-15T05:00:12.838Z,100935.47
2023-05-15T05:02:43.411Z,100927.78
2023-05-15T05:05:11.853Z,100937.75
2023-05-15T05:07:40.521Z,100938.34
2023-05-15T05:10:09.659Z,100946.63
2023-05-15T05:12:38.958Z,100948.97
2023-05-15T05:15:08.175Z,100942.25
2023-05-15T05:17:36.354Z,100949.53
2023-05-15T05:20:05.254Z,100947.28
2023-05-15T05:22:34.255Z,100943.06
2023-05-15T05:25:03.915Z,100948.06
2023-05-15T05:27:33.185Z,100947.25
2023-05-15T05:30:01.476Z,100949.75
2023-05-15T05:32:30.697Z,100952.53
2023-05-15T05:34:58.876Z,100954.34
2023-05-15T05:37:27.393Z,100947.78
2023-05-15T05:39:55.547Z,100958.94
2023-05-15T05:42:23.747Z,100968.94
2023-05-15T05:44:51.726Z,100953.47
2023-05-15T05:47:45.217Z,100958.50
2023-05-15T05:50:13.274Z,100952.72
2023-05-15T05:52:42.260Z,100957.31
2023-05-15T05:55:10.862Z,100953.59
2023-05-15T05:57:39.474Z,100953.09
2023-05-15T06:00:12.623Z,100946.34
2023-05-15T06:02:41.182Z,100953.34
2023-05-15T06:05:09.626Z,100960.72
2023-05-15T06:07:37.726Z,100956.03
2023-05-15T06:10:10.014Z,100944.81
2023-05-15T06:12:38.379Z,100952.81
2023-05-15T06:15:08.083Z,100950.94
2023-05-15T06:17:36.876Z,100951.78
2023-05-15T06:20:12.389Z,100948.16
2023-05-15T06:22:42.487Z,100946.66
2023-05-15T06:25:15.078Z,100936.69
2023-05-15T06:27:43.941Z,100938.88
2023-05-15T06:30:12.713Z,100944.50
2023-05-15T06:32:42.273Z,100944.44
2023-05-15T06:35:10.945Z,100946.44
2023-05-15T06:37:39.820Z,100939.06
2023-05-15T06:40:09.166Z,100941.81
2023-05-15T06:42:37.422Z,100935.06
2023-05-15T06:45:06.192Z,100940.94
2023-05-15T06:47:34.514Z,100934.75
2023-05-15T06:50:02.738Z,100929.50
2023-05-15T06:52:31.712Z,100937.34
2023-05-15T06:55:00.106Z,100933.03
2023-05-15T06:57:28.292Z,100929.41
2023-05-15T06:59:56.868Z,100931.31
2023-05-15T07:02:25.909Z,100931.03
2023-05-15T07:05:15.316Z,100933.66
2023-05-15T07:07:43.840Z,100929.50
2023-05-15T07:10:12.014Z,100942.69
2023-05-15T07:12:41.056Z,100933.03
2023-05-15T07:15:09.856Z,100931.94
2023-05-15T07:17:38.284Z,100932.66
2023-05-15T07:20:07.132Z,100930.97
2023-05-15T07:22:44.619Z,100919.41
2023-05-15T07:25:17.179Z,100924.00
2023-05-15T07:27:46.033Z,100919.78
2023-05-15T07:30:14.543Z,100916.81
2023-05-15T07:32:52.702Z,100915.94
2023-05-15T07:35:27.121Z,100916.16
2023-05-15T07:37:55.794Z,100907.28
2023-05-15T07:40:24.224Z,100907.28
2023-05-15T07:42:52.456Z,100907.03
2023-05-15T07:45:21.278Z,100911.06
2023-05-15T07:47:50.192Z,100905.16
2023-05-15T07:50:18.806Z,100906.22
2023-05-15T07:52:46.990Z,100900.72
2023-05-15T07:55:15.259Z,100899.41
2023-05-15T07:57:43.725Z,100893.06
2023-05-15T08:00:12.491Z,100892.81
2023-05-15T08:02:41.276Z,100894.94
2023-05-15T08:05:09.680Z,100890.72
2023-05-15T08:07:38.076Z,100890.09
2023-05-15T08:10:07.908Z,100894.13
2023-05-15T08:12:36.411Z,100895.19
2023-05-15T08:15:05.425Z,100889.44
2023-05-15T08:17:34.058Z,100888.19
2023-05-15T08:20:02.119Z,100888.41
2023-05-15T08:22:33.570Z,100890.94
2023-05-15T08:25:04.180Z,100891.16
2023-05-15T08:27:33.534Z,100890.31
2023-05-15T08:30:01.809Z,100893.69
2023-05-15T08:32:30.576Z,100891.38
2023-05-15T08:34:58.761Z,100877.97
2023-05-15T08:37:26.813Z,100885.84
2023-05-15T08:39:54.894Z,100881.38
2023-05-15T08:42:30.729Z,100880.28
2023-05-15T08:45:00.305Z,100883.22
2023-05-15T08:47:32.770Z,100876.44
2023-05-15T08:50:07.125Z,100874.34
2023-05-15T08:52:35.631Z,100870.13
2023-05-15T08:55:04.509Z,100877.34
2023-05-15T08:57:34.128Z,100860.56
2023-05-15T09:00:06.094Z,100857.13
2023-05-15T09:02:37.836Z,100854.72
2023-05-15T09:05:06.705Z,100845.88
2023-05-15T09:07:36.015Z,100837.03
2023-05-15T09:10:04.750Z,100840.19
2023-05-15T09:12:35.112Z,100847.94
2023-05-15T09:15:13.486Z,100840.06
2023-05-15T09:17:43.658Z,100836.88
2023-05-15T09:20:30.794Z,100831.84
2023-05-15T09:23:00.921Z,100826.19
2023-05-15T09:25:41.902Z,100831.25
2023-05-15T09:28:26.782Z,100827.66
2023-05-15T09:31:00.480Z,100825.84
2023-05-15T09:33:34.236Z,100826.28
2023-05-15T09:36:06.994Z,100814.06
2023-05-15T09:38:43.432Z,100815.75
2023-05-15T09:41:12.141Z,100821.59
2023-05-15T09:43:43.420Z,100813.59
2023-05-15T09:46:13.520Z,100811.41
2023-05-15T09:48:41.710Z,100822.16
2023-05-15T09:51:19.961Z,100819.66
2023-05-15T09:53:53.205Z,100811.59
2023-05-15T09:56:22.809Z,100811.34
2023-05-15T09:58:58.967Z,100818.09
2023-05-15T10:01:28.035Z,100812.41
2023-05-15T10:04:03.842Z,100804.59
2023-05-15T10:06:42.023Z,100807.75
2023-05-15T10:09:11.860Z,100807.84
2023-05-15T10:11:44.376Z,100811.72
2023-05-15T10:14:14.411Z,100807.84
2023-05-15T10:16:42.821Z,100803.28
2023-05-15T10:19:12.244Z,100812.41
2023-05-15T10:21:42.160Z,100811.66
2023-05-15T10:24:11.690Z,100799.38
2023-05-15T10:26:41.474Z,100798.78
2023-05-15T10:29:14.050Z,100785.91
2023-05-15T10:31:42.784Z,100787.19
2023-05-15T10:34:12.529Z,100780.06
2023-05-15T10:36:43.315Z,100781.91
2023-05-15T10:39:12.300Z,100787.91
2023-05-15T10:41:41.119Z,100780.00
2023-05-15T10:44:10.509Z,100784.31
2023-05-15T10:46:39.273Z,100779.00
2023-05-15T10:49:07.797Z,100782.31
2023-05-15T10:51:38.158Z,100783.78
2023-05-15T10:54:06.736Z,100791.91
2023-05-15T10:56:39.020Z,100780.16
2023-05-15T10:59:09.562Z,100782.38
2023-05-15T11:01:39.722Z,100781.63
2023-05-15T11:04:15.859Z,100783.28
2023-05-15T11:06:46.204Z,100787.31
2023-05-15T11:09:27.241Z,100783.81
2023-05-15T11:11:58.154Z,100786.03
2023-05-15T11:14:35.570Z,100781.97
2023-05-15T11:17:08.721Z,100777.03
2023-05-15T11:19:56.175Z,100779.41
2023-05-15T11:22:37.060Z,100782.56
2023-05-15T11:25:09.487Z,100793.50
2023-05-15T11:27:38.253Z,100788.19
2023-05-15T11:30:18.459Z,100796.03
2023-05-15T11:32:55.760Z,100793.41
2023-05-15T11:35:42.692Z,100792.56
2023-05-15T11:38:10.961Z,100803.00
2023-05-15T11:40:53.076Z,100800.66
2023-05-15T11:43:26.245Z,100808.78
2023-05-15T11:46:11.341Z,100805.63
2023-05-15T11:48:48.212Z,100797.78
2023-05-15T11:51:26.247Z,100807.38
2023-05-15T11:53:56.098Z,100796.28
2023-05-15T11:56:26.254Z,100805.53
2023-05-15T11:58:59.343Z,100789.94
2023-05-15T12:01:28.638Z,100795.44
2023-05-15T12:03:56.976Z,100796.16
2023-05-15T12:06:25.479Z,100799.41
2023-05-15T12:08:54.461Z,100801.53
2023-05-15T12:11:25.921Z,100797.69
2023-05-15T12:13:55.207Z,100797.28
2023-05-15T12:16:27.469Z,100792.97
2023-05-15T12:18:57.888Z,100795.13
2023-05-15T12:21:29.589Z,100795.16
2023-05-15T12:24:07.531Z,100786.22
2023-05-15T12:26:37.816Z,100789.03
2023-05-15T12:29:06.329Z,100788.44
2023-05-15T12:31:35.358Z,100786.31
2023-05-15T12:34:03.743Z,100783.22
2023-05-15T12:36:32.174Z,100781.16
2023-05-15T12:39:06.840Z,100781.16
2023-05-15T12:41:38.932Z,100783.09
2023-05-15T12:44:07.684Z,100782.38
2023-05-15T12:46:36.542Z,100774.34
2023-05-15T12:49:04.915Z,100778.66
2023-05-15T12:51:33.439Z,100765.41
2023-05-15T12:54:01.690Z,100773.19
2023-05-15T12:56:30.931Z,100765.00
2023-05-15T12:58:59.116Z,100763.22
2023-05-15T13:01:29.819Z,100759.84
2023-05-15T13:03:59.422Z,100765.84
2023-05-15T13:06:41.985Z,100769.00
2023-05-15T13:09:14.517Z,100767.94
2023-05-15T13:11:45.750Z,100763.22
2023-05-15T13:14:17.914Z,100759.41
2023-05-15T13:16:47.816Z,100758.94
2023-05-15T13:19:17.482Z,100759.56
2023-05-15T13:21:46.407Z,100765.16
2023-05-15T13:24:15.445Z,100757.38
2023-05-15T13:26:43.865Z,100759.56
2023-05-15T13:29:12.006Z,100757.25
2023-05-15T13:31:53.284Z,100754.00
2023-05-15T13:34:21.679Z,100742.78
2023-05-15T13:36:49.977Z,100752.31
2023-05-15T13:39:18.148Z,100755.56
2023-05-15T13:41:46.761Z,100754.34
2023-05-15T13:44:15.530Z,100750.84
2023-05-15T13:46:44.388Z,100751.97
2023-05-15T13:49:12.771Z,100749.91
2023-05-15T13:51:43.565Z,100749.91
2023-05-15T13:54:12.322Z,100747.72
2023-05-15T13:56:41.384Z,100742.88
2023-05-15T13:59:10.085Z,100746.72
2023-05-15T14:01:48.211Z,100747.25
2023-05-15T14:04:17.116Z,100750.28
2023-05-15T14:06:45.225Z,100759.03
2023-05-15T14:09:13.440Z,100752.78
2023-05-15T14:11:41.608Z,100751.56
2023-05-15T14:14:10.025Z,100757.75
2023-05-15T14:16:38.215Z,100750.91
2023-05-15T14:19:07.082Z,100746.88
2023-05-15T14:21:35.445Z,100743.72
2023-05-15T14:24:05.149Z,100745.09
2023-05-15T14:26:45.975Z,100744.97
2023-05-15T14:29:14.684Z,100755.72
2023-05-15T14:31:44.446Z,100748.09
2023-05-15T14:34:12.654Z,100740.25
2023-05-15T14:36:47.200Z,100734.28
2023-05-15T14:39:16.215Z,100747.91
2023-05-15T14:41:44.931Z,100738.38
2023-05-15T14:44:12.951Z,100752.22
2023-05-15T14:46:43.284Z,100749.69
2023-05-15T14:49:11.461Z,100734.19
2023-05-15T14:51:40.246Z,100729.75
2023-05-15T14:54:08.353Z,100733.78
2023-05-15T14:56:37.268Z,100733.13
2023-05-15T14:59:05.936Z,100741.03
2023-05-15T15:01:43.951Z,100735.53
2023-05-15T15:04:15.017Z,100731.03
2023-05-15T15:06:44.604Z,100738.28
2023-05-15T15:09:13.795Z,100741.91
2023-05-15T15:11:44.924Z,100741.75
2023-05-15T15:14:15.547Z,100741.75
2023-05-15T15:16:44.613Z,100745.59
2023-05-15T15:19:17.398Z,100749.66
2023-05-15T15:21:47.445Z,100747.34
2023-05-15T15:24:16.755Z,100742.88
2023-05-15T15:26:45.153Z,100745.00
2023-05-15T15:29:17.538Z,100743.75
2023-05-15T15:31:46.641Z,100746.94
2023-05-15T15:34:15.225Z,100751.66
2023-05-15T15:36:44.241Z,100755.47
2023-05-15T15:39:13.361Z,100754.00
2023-05-15T15:41:41.878Z,100741.03
2023-05-15T15:44:10.047Z,100743.84
2023-05-15T15:46:38.219Z,100736.63
2023-05-15T15:49:06.952Z,100743.03
2023-05-15T15:51:36.617Z,100742.22
2023-05-15T15:54:05.328Z,100745.81
2023-05-15T15:56:33.953Z,100737.38
2023-05-15T15:59:03.258Z,100739.28
2023-05-15T16:01:33.364Z,100746.47
2023-05-15T16:04:01.719Z,100744.59
2023-05-15T16:06:30.123Z,100742.47
2023-05-15T16:08:58.595Z,100739.91
2023-05-15T16:11:26.921Z,100750.31
2023-05-15T16:13:55.613Z,100744.50
2023-05-15T16:16:24.759Z,100752.28
2023-05-15T16:18:55.152Z,100749.50
2023-05-15T16:21:24.529Z,100750.53
2023-05-15T16:23:53.258Z,100750.91
2023-05-15T16:26:21.771Z,100754.22
2023-05-15T16:28:51.393Z,100755.84
2023-05-15T16:31:21.603Z,100743.94
2023-05-15T16:33:55.722Z,100743.84
2023-05-15T16:36:24.272Z,100757.28
2023-05-15T16:38:52.616Z,100756.25
2023-05-15T16:41:21.973Z,100755.59
2023-05-15T16:43:50.647Z,100752.03
2023-05-15T16:46:20.227Z,100759.38
2023-05-15T16:48:48.960Z,100758.09
2023-05-15T16:51:17.452Z,100762.47
2023-05-15T16:53:46.046Z,100771.97
2023-05-15T16:56:14.491Z,100762.59
2023-05-15T16:58:46.073Z,100758.16
2023-05-15T17:01:14.728Z,100773.53
2023-05-15T17:03:44.205Z,100765.50
2023-05-15T17:06:12.487Z,100772.63
2023-05-15T17:08:43.084Z,100772.72
2023-05-15T17:11:12.120Z,100774.75
2023-05-15T17:13:41.101Z,100773.66
2023-05-15T17:16:09.473Z,100768.28
2023-05-15T17:18:40.113Z,100770.28
2023-05-15T17:21:08.115Z,100778.38
2023-05-15T17:23:36.371Z,100772.25
2023-05-15T17:26:04.637Z,100777.94
2023-05-15T17:28:35.196Z,100781.59
2023-05-15T17:31:12.792Z,100784.03
2023-05-15T17:33:42.145Z,100784.78
2023-05-15T17:36:10.917Z,100787.16
2023-05-15T17:38:39.288Z,100785.97
2023-05-15T17:41:07.954Z,100782.03
2023-05-15T17:43:36.351Z,100783.06
2023-05-15T17:46:06.032Z,100788.34
2023-05-15T17:48:34.553Z,100786.31
2023-05-15T17:51:02.660Z,100791.09
2023-05-15T17:53:32.573Z,100792.25
2023-05-15T17:56:01.455Z,100787.59
2023-05-15T17:58:30.914Z,100800.88
2023-05-15T18:00:59.617Z,100794.56
2023-05-15T18:03:27.647Z,100803.72
2023-05-15T18:05:56.134Z,100800.66
2023-05-15T18:08:24.145Z,100796.00
2023-05-15T18:10:52.344Z,100808.94
2023-05-15T18:13:21.303Z,100801.25
2023-05-15T18:15:49.656Z,100806.34
2023-05-15T18:18:17.712Z,100804.78
2023-05-15T18:20:46.386Z,100811.28
2023-05-15T18:23:15.686Z,100810.06
2023-05-15T18:25:44.071Z,100811.53
2023-05-15T18:28:13.329Z,100813.78
2023-05-15T18:30:42.592Z,100821.22
2023-05-15T18:33:14.761Z,100823.06
2023-05-15T18:35:43.185Z,100819.44
2023-05-15T18:38:15.394Z,100818.00
2023-05-15T18:40:46.930Z,100810.00
2023-05-15T18:43:16.153Z,100824.97
2023-05-15T18:45:44.295Z,100823.41
2023-05-15T18:48:13.689Z,100822.56
2023-05-15T18:50:42.150Z,100813.84
2023-05-15T18:53:10.393Z,100820.00
2023-05-15T18:55:39.773Z,100822.38
2023-05-15T18:58:08.279Z,100820.06
2023-05-15T19:00:38.996Z,100821.31
2023-05-15T19:03:09.011Z,100831.72
2023-05-15T19:05:38.388Z,100826.28
2023-05-15T19:08:07.515Z,100825.25
2023-05-15T19:10:38.699Z,100831.41
2023-05-15T19:13:07.187Z,100828.69
2023-05-15T19:15:35.534Z,100841.28
2023-05-15T19:18:04.020Z,100842.31
2023-05-15T19:20:32.829Z,100841.09
2023-05-15T19:23:01.153Z,100843.34
2023-05-15T19:25:29.773Z,100847.09
2023-05-15T19:27:58.151Z,100850.34
2023-05-15T19:30:26.791Z,100843.56
2023-05-15T19:32:55.570Z,100843.41
2023-05-15T19:35:24.712Z,100843.56
2023-05-15T19:37:53.130Z,100845.22
2023-05-15T19:40:21.791Z,100852.50
2023-05-15T19:42:50.075Z,100841.31
2023-05-15T19:45:18.336Z,100854.69
2023-05-15T19:47:46.635Z,100850.44
2023-05-15T19:50:15.276Z,100838.91
2023-05-15T19:52:45.192Z,100844.56
2023-05-15T19:55:17.088Z,100843.28
2023-05-15T19:57:45.454Z,100844.03
2023-05-15T20:00:14.457Z,100844.66
2023-05-15T20:02:45.583Z,100835.81
2023-05-15T20:05:15.681Z,100842.09
2023-05-15T20:07:44.149Z,100855.53
2023-05-15T20:10:12.610Z,100850.28
2023-05-15T20:12:43.220Z,100854.31
2023-05-15T20:15:14.798Z,100849.72
2023-05-15T20:17:43.555Z,100854.16
2023-05-15T20:20:12.591Z,100849.97
2023-05-15T20:22:45.295Z,100847.81
2023-05-15T20:25:15.705Z,100851.09
2023-05-15T20:27:44.199Z,100852.34
2023-05-15T20:30:12.621Z,100853.72
2023-05-15T20:32:41.702Z,100849.38
2023-05-15T20:35:11.268Z,100854.69
2023-05-15T20:40:27.753Z,100846.03
2023-05-15T20:42:57.473Z,100856.38
2023-05-15T20:45:26.330Z,100848.66
2023-05-15T20:47:56.451Z,100853.53
2023-05-15T20:50:25.137Z,100847.56
2023-05-15T20:52:53.884Z,100853.59
2023-05-15T20:55:22.743Z,100841.63
2023-05-15T20:57:51.232Z,100848.34
2023-05-15T21:00:19.653Z,100847.78
2023-05-15T21:02:48.189Z,100850.97
2023-05-15T21:05:16.567Z,100848.84
2023-05-15T21:07:45.115Z,100848.13
2023-05-15T21:10:13.888Z,100849.59
2023-05-15T21:12:43.175Z,100846.78
2023-05-15T21:15:29.180Z,100842.47
2023-05-15T21:17:57.521Z,100838.06
2023-05-15T21:20:27.775Z,100842.22
2023-05-15T21:22:56.129Z,100843.66
2023-05-15T21:25:24.108Z,100841.50
2023-05-15T21:27:52.372Z,100842.09
2023-05-15T21:30:21.195Z,100838.94
2023-05-15T21:32:49.429Z,100838.81
2023-05-15T21:35:18.156Z,100834.69
2023-05-15T21:37:46.727Z,100840.84
2023-05-15T21:40:15.296Z,100838.16
2023-05-15T21:42:44.022Z,100836.84
2023-05-15T21:45:12.209Z,100847.13
2023-05-15T21:47:41.498Z,100844.31
2023-05-15T21:50:10.227Z,100849.72
2023-05-15T21:52:40.523Z,100846.03
2023-05-15T21:55:12.268Z,100857.00
2023-05-15T21:57:40.845Z,100856.44
2023-05-15T22:00:09.799Z,100860.00
2023-05-15T22:02:39.268Z,100852.72
2023-05-15T22:05:10.403Z,100848.47
2023-05-15T22:07:39.282Z,100850.44
2023-05-15T22:10:08.540Z,100844.28
2023-05-15T22:12:38.183Z,100847.16
2023-05-15T22:15:07.703Z,100843.16
2023-05-15T22:17:37.388Z,100844.31
2023-05-15T22:20:14.166Z,100841.28
2023-05-15T22:22:42.874Z,100844.44
2023-05-15T22:25:14.524Z,100848.97
2023-05-15T22:27:43.022Z,100839.69
2023-05-15T22:30:11.409Z,100842.41
2023-05-15T22:32:41.451Z,100847.25
2023-05-15T22:35:10.215Z,100852.34
2023-05-15T22:37:41.166Z,100849.44
2023-05-15T22:40:11.257Z,100847.00
2023-05-15T22:42:41.784Z,100847.00
2023-05-15T22:45:10.977Z,100850.84
2023-05-15T22:47:56.697Z,100849.31
2023-05-15T22:50:24.887Z,100842.66
2023-05-15T22:52:53.911Z,100849.75
2023-05-15T22:55:23.377Z,100847.94
2023-05-15T22:57:51.568Z,100840.66
2023-05-15T23:00:19.960Z,100845.38
2023-05-15T23:02:48.617Z,100845.22
2023-05-15T23:05:17.307Z,100843.13
2023-05-15T23:07:45.545Z,100848.84
2023-05-15T23:10:14.918Z,100848.72
2023-05-15T23:12:43.600Z,100841.44
2023-05-15T23:15:12.257Z,100840.72
2023-05-15T23:17:40.713Z,100839.16
2023-05-15T23:20:13.325Z,100840.28
2023-05-15T23:22:41.801Z,100832.75
2023-05-15T23:25:10.963Z,100840.75
2023-05-15T23:27:41.993Z,100847.16
2023-05-15T23:30:12.899Z,100843.59
2023-05-15T23:32:41.164Z,100847.25
2023-05-15T23:35:09.717Z,100845.94
2023-05-15T23:37:38.525Z,100836.78
2023-05-15T23:40:07.477Z,100834.34
2023-05-15T23:42:35.897Z,100827.34
2023-05-15T23:45:04.289Z,100832.75
2023-05-15T23:47:32.709Z,100830.19
2023-05-15T23:50:01.167Z,100830.47
2023-05-15T23:52:29.758Z,100830.19
2023-05-15T23:54:58.063Z,100824.31
2023-05-15T23:57:26.361Z,100834.69
2023-05-15T23:59:54.591Z,100833.41
